Airfield :
LOGIN :

Register | Disclaimer

   EN    FR    IT 

 










Legend :    VFR   Marginal VFR   IFR   Intensive IFR   Very Intensive IFR
Visi :
Ceiling :
>= 8 km
>= 3000ft
5 to 8 km
1000 to 3000 ft
1500m to 5 km
500 to 1000 ft
800 to 1500m
200 to 500 ft
< 800m
< 200 ft
Symbols :   Thunderstorms  Fog  Heavy snow  Heavy precipitations  Wind > 20 kt
SIGMETs :     Misc.  Thunderstorms  Icing  Turbulence  Mountain Waves  Volcanic Ashes







- Airport Elevation : 102 ft
- IATA code : KEL


EDHK - Holtenau

CURRENT METAR :
  • 201350Z 23012KT 180V260 9999 FEW028 BKN038 22/14 Q1012

EXPIRED METARs :
  • 201320Z 24011KT 9999 BKN037 22/14 Q1013
  • 201250Z 23012KT 200V260 9999 FEW021 SCT036 OVC065 21/14 Q1013
  • 201220Z 22010KT 190V260 9999 SCT035 OVC065 21/14 Q1013
  • 201150Z 23008KT 200V260 9999 SCT029 OVC045 20/14 Q1013
  • 201120Z 23012KT 200V260 9999 SCT029 OVC049 20/13 Q1013

TAF TAF EDHK
Valid from the 20 at 12:00 until the 20 at 18:00 UTC


201100Z 2012/2018 21010KT 9999 SCT025
TEMPO 2012/2016 23015G25KT
BECMG 2016/2018 21005KT
No reported NOTAMs for that airfield.



MET'MAP, your aeronautical weather chart ! - Copyright ORBIFLY December 2007 - Disclaimer

ORBIFLY MET'MAP TEAM :

Programming & Development : Alexandra Zaïnal
Concept & Development : Baudouin d'Aumeries
Co-Development & Prog : Marc-Olivier Méhu
Technical & hardware support : Manuel Goepfert

Contact : metmap@orbifly.com




SOURCES & CREDITS :

   NOAA